createdAt,value
2023-01-19T00:01:42.048Z,2.85
2023-01-19T00:04:10.308Z,3.13
2023-01-19T00:06:40.414Z,4.32
2023-01-19T00:09:08.712Z,3.50
2023-01-19T00:11:36.961Z,3.35
2023-01-19T00:14:05.294Z,3.38
2023-01-19T00:16:33.541Z,4.03
2023-01-19T00:19:01.817Z,3.20
2023-01-19T00:21:30.106Z,2.80
2023-01-19T00:23:59.907Z,3.10
2023-01-19T00:26:28.211Z,3.90
2023-01-19T00:28:56.425Z,3.53
2023-01-19T00:31:24.640Z,3.33
2023-01-19T00:33:53.164Z,3.00
2023-01-19T00:36:21.822Z,3.63
2023-01-19T00:38:50.132Z,4.18
2023-01-19T00:41:39.991Z,4.28
2023-01-19T00:44:07.608Z,4.55
2023-01-19T00:46:35.854Z,3.10
2023-01-19T00:49:04.364Z,2.70
2023-01-19T00:51:32.881Z,3.17
2023-01-19T00:54:10.449Z,3.65
2023-01-19T00:56:40.155Z,3.45
2023-01-19T00:59:08.443Z,3.33
2023-01-19T01:01:45.406Z,3.97
2023-01-19T01:04:18.562Z,3.95
2023-01-19T01:06:46.845Z,4.15
2023-01-19T01:09:15.090Z,4.40
2023-01-19T01:11:44.980Z,4.03
2023-01-19T01:14:14.321Z,3.72
2023-01-19T01:16:42.633Z,4.05
2023-01-19T01:19:10.982Z,3.97
2023-01-19T01:21:40.509Z,3.90
2023-01-19T01:24:10.231Z,4.15
2023-01-19T01:26:38.390Z,4.25
2023-01-19T01:29:08.731Z,3.75
2023-01-19T01:31:37.182Z,4.28
2023-01-19T01:34:05.578Z,3.88
2023-01-19T01:36:34.074Z,3.33
2023-01-19T01:39:02.427Z,3.95
2023-01-19T01:41:30.631Z,3.63
2023-01-19T01:44:01.760Z,3.75
2023-01-19T01:46:33.300Z,3.28
2023-01-19T01:49:06.958Z,3.33
2023-01-19T01:51:38.795Z,3.30
2023-01-19T01:54:16.924Z,3.40
2023-01-19T01:56:47.792Z,3.08
2023-01-19T01:59:25.865Z,4.65
2023-01-19T02:02:16.346Z,4.53
2023-01-19T02:04:48.772Z,3.97
2023-01-19T02:07:41.682Z,3.67
2023-01-19T02:10:29.390Z,4.00
2023-01-19T02:13:16.171Z,3.85
2023-01-19T02:15:44.482Z,3.22
2023-01-19T02:18:14.309Z,4.03
2023-01-19T02:20:47.696Z,3.53
2023-01-19T02:23:21.284Z,4.22
2023-01-19T02:25:51.299Z,3.63
2023-01-19T02:28:20.113Z,3.65
2023-01-19T02:30:48.400Z,3.93
2023-01-19T02:33:16.627Z,3.88
2023-01-19T02:35:46.245Z,3.55
2023-01-19T02:38:16.604Z,3.40
2023-01-19T02:40:46.295Z,3.75
2023-01-19T02:43:17.666Z,4.13
2023-01-19T02:45:46.794Z,3.42
2023-01-19T02:48:16.183Z,3.83
2023-01-19T02:50:49.491Z,3.15
2023-01-19T02:53:37.357Z,3.85
2023-01-19T02:56:20.456Z,3.92
2023-01-19T02:58:59.756Z,4.13
2023-01-19T03:01:35.207Z,3.33
2023-01-19T03:04:14.640Z,2.70
2023-01-19T03:06:49.510Z,3.65
2023-01-19T03:09:28.437Z,3.72
2023-01-19T03:12:05.456Z,3.97
2023-01-19T03:14:40.257Z,3.58
2023-01-19T03:17:11.973Z,3.25
2023-01-19T03:19:43.725Z,4.30
2023-01-19T03:22:16.204Z,3.67
2023-01-19T03:24:47.648Z,3.55
2023-01-19T03:27:20.606Z,3.78
2023-01-19T03:29:54.877Z,4.15
2023-01-19T03:32:29.676Z,3.25
2023-01-19T03:35:01.194Z,3.60
2023-01-19T03:37:31.825Z,3.38
2023-01-19T03:40:00.029Z,3.20
2023-01-19T03:42:29.913Z,3.30
2023-01-19T03:45:02.339Z,3.30
2023-01-19T03:47:30.640Z,3.78
2023-01-19T03:50:03.071Z,4.70
2023-01-19T03:52:33.546Z,4.00
2023-01-19T03:55:02.457Z,3.95
2023-01-19T03:57:30.811Z,4.75
2023-01-19T04:00:00.531Z,4.00
2023-01-19T04:02:28.701Z,4.20
2023-01-19T04:04:57.049Z,4.65
2023-01-19T04:07:25.337Z,4.05
2023-01-19T04:09:53.556Z,4.05
2023-01-19T04:12:22.066Z,4.65
2023-01-19T04:14:50.538Z,4.22
2023-01-19T04:17:20.219Z,3.92
2023-01-19T04:19:48.498Z,3.90
2023-01-19T04:22:16.798Z,4.63
2023-01-19T04:24:45.105Z,3.97
2023-01-19T04:27:15.053Z,3.65
2023-01-19T04:29:43.357Z,4.33
2023-01-19T04:32:11.623Z,4.47
2023-01-19T04:34:41.259Z,3.90
2023-01-19T04:37:09.679Z,4.10
2023-01-19T04:39:38.289Z,5.05
2023-01-19T04:42:06.559Z,4.05
2023-01-19T04:44:34.785Z,3.80
2023-01-19T04:47:03.534Z,4.50
2023-01-19T04:49:31.702Z,3.90
2023-01-19T04:52:01.409Z,4.70
2023-01-19T04:54:29.618Z,4.85
2023-01-19T04:56:57.861Z,3.67
2023-01-19T04:59:26.122Z,5.10
2023-01-19T05:01:54.297Z,4.30
2023-01-19T05:04:22.511Z,4.07
2023-01-19T05:06:51.695Z,4.65
2023-01-19T05:09:21.466Z,4.53
2023-01-19T05:11:49.719Z,5.07
2023-01-19T05:14:17.970Z,4.45
2023-01-19T05:16:46.262Z,4.72
2023-01-19T05:19:14.425Z,4.90
2023-01-19T05:21:42.595Z,5.43
2023-01-19T05:24:10.890Z,4.97
2023-01-19T05:26:40.707Z,5.57
2023-01-19T05:29:10.115Z,4.68
2023-01-19T05:31:38.470Z,4.88
2023-01-19T05:34:06.855Z,5.18
2023-01-19T05:36:35.172Z,4.65
2023-01-19T05:39:03.593Z,5.47
2023-01-19T05:41:31.912Z,5.07
2023-01-19T05:44:01.630Z,5.50
2023-01-19T05:46:29.929Z,5.68
2023-01-19T05:48:58.496Z,5.43
2023-01-19T05:51:26.759Z,4.72
2023-01-19T05:53:55.549Z,5.38
2023-01-19T05:56:23.844Z,5.20
2023-01-19T05:58:52.053Z,6.53
2023-01-19T06:01:21.853Z,5.70
2023-01-19T06:03:50.458Z,6.13
2023-01-19T06:06:19.035Z,5.68
2023-01-19T06:08:47.875Z,4.70
2023-01-19T06:11:16.073Z,5.25
2023-01-19T06:13:44.403Z,6.13
2023-01-19T06:16:13.015Z,5.60
2023-01-19T06:18:42.832Z,6.05
2023-01-19T06:21:14.375Z,5.38
2023-01-19T06:23:42.788Z,5.53
2023-01-19T06:26:11.326Z,5.35
2023-01-19T06:28:39.661Z,5.75
2023-01-19T06:31:08.238Z,6.32
2023-01-19T06:33:36.584Z,5.85
2023-01-19T06:36:07.135Z,5.75
2023-01-19T06:38:35.288Z,5.30
2023-01-19T06:41:04.890Z,5.35
2023-01-19T06:43:33.269Z,4.00
2023-01-19T06:46:02.412Z,5.53
2023-01-19T06:48:30.887Z,5.25
2023-01-19T06:50:59.936Z,5.18
2023-01-19T06:53:30.241Z,4.45
2023-01-19T06:56:01.547Z,4.65
2023-01-19T06:58:31.062Z,5.38
2023-01-19T07:01:30.510Z,4.88
2023-01-19T07:04:04.516Z,5.32
2023-01-19T07:06:53.752Z,5.72
2023-01-19T07:09:32.794Z,5.07
2023-01-19T07:12:03.579Z,5.10
2023-01-19T07:14:34.051Z,5.18
2023-01-19T07:17:04.424Z,4.05
2023-01-19T07:19:52.366Z,4.55
2023-01-19T07:22:24.545Z,4.35
2023-01-19T07:25:02.850Z,4.88
2023-01-19T07:28:03.832Z,4.88
2023-01-19T07:30:46.575Z,4.47
2023-01-19T07:33:53.565Z,4.18
2023-01-19T07:36:24.435Z,4.72
2023-01-19T07:39:10.866Z,4.40
2023-01-19T07:41:43.426Z,5.30
2023-01-19T07:44:12.203Z,4.97
2023-01-19T07:46:54.147Z,4.00
2023-01-19T07:49:22.489Z,5.50
2023-01-19T07:51:50.901Z,8.40
2023-01-19T07:54:20.446Z,5.45
2023-01-19T07:56:50.129Z,5.47
2023-01-19T07:59:26.756Z,4.93
2023-01-19T08:02:04.104Z,5.82
2023-01-19T08:04:35.313Z,5.43
2023-01-19T08:07:05.893Z,4.80
2023-01-19T08:09:43.633Z,4.93
2023-01-19T08:12:18.388Z,4.90
2023-01-19T08:14:49.892Z,4.05
2023-01-19T08:17:20.396Z,5.38
2023-01-19T08:23:18.790Z,5.35
2023-01-19T08:25:47.379Z,5.88
2023-01-19T08:28:26.168Z,3.88
2023-01-19T08:31:26.555Z,5.38
2023-01-19T08:33:54.829Z,4.88
2023-01-19T08:36:51.881Z,5.22
2023-01-19T08:40:11.607Z,4.47
2023-01-19T08:42:50.912Z,6.22
2023-01-19T08:45:59.484Z,5.57
2023-01-19T08:48:43.500Z,5.03
2023-01-19T08:51:29.779Z,4.90
2023-01-19T08:54:01.326Z,4.70
2023-01-19T08:56:30.238Z,4.05
2023-01-19T08:59:21.471Z,5.60
2023-01-19T09:02:13.287Z,4.80
2023-01-19T09:04:58.912Z,4.88
2023-01-19T09:07:32.499Z,4.20
2023-01-19T09:10:50.604Z,3.72
2023-01-19T09:17:15.387Z,4.60
2023-01-19T09:19:46.926Z,4.15
2023-01-19T09:23:13.125Z,4.75
2023-01-19T09:26:07.099Z,4.07
2023-01-19T09:28:49.349Z,3.13
2023-01-19T09:31:20.417Z,3.92
2023-01-19T09:34:07.769Z,3.30
2023-01-19T09:36:37.549Z,3.80
2023-01-19T09:42:59.660Z,2.95
2023-01-19T09:45:52.314Z,3.70
2023-01-19T09:49:11.590Z,3.35
2023-01-19T09:52:27.258Z,3.08
2023-01-19T09:54:58.784Z,3.67
2023-01-19T09:58:14.051Z,3.83
2023-01-19T10:01:49.886Z,4.10
2023-01-19T10:05:01.607Z,3.58
2023-01-19T10:07:53.683Z,3.80
2023-01-19T10:10:42.527Z,4.00
2023-01-19T10:14:00.516Z,2.58
2023-01-19T10:16:57.253Z,2.70
2023-01-19T10:27:37.777Z,3.08
2023-01-19T10:30:19.021Z,3.75
2023-01-19T10:32:47.279Z,4.13
2023-01-19T10:35:22.122Z,3.15
2023-01-19T10:38:08.715Z,3.60
2023-01-19T10:41:18.709Z,3.63
2023-01-19T10:43:58.664Z,4.72
2023-01-19T10:46:50.609Z,3.50
2023-01-19T10:49:45.548Z,4.80
2023-01-19T10:55:42.364Z,4.10
2023-01-19T11:01:39.379Z,3.75
2023-01-19T11:04:53.261Z,4.18
2023-01-19T11:07:23.819Z,2.92
2023-01-19T11:10:28.892Z,2.85
2023-01-19T11:13:02.761Z,2.97
2023-01-19T11:16:01.896Z,3.22
2023-01-19T11:18:50.312Z,3.55
2023-01-19T11:21:37.657Z,3.03
2023-01-19T11:24:16.675Z,3.90
2023-01-19T11:27:03.831Z,3.30
2023-01-19T11:30:22.447Z,2.92
2023-01-19T11:32:29.354Z,2.90
2023-01-19T11:34:59.057Z,2.58
2023-01-19T11:37:39.001Z,3.15
2023-01-19T11:40:16.551Z,2.17
2023-01-19T11:42:45.084Z,2.67
2023-01-19T11:45:25.675Z,2.30
2023-01-19T11:47:54.097Z,2.30
2023-01-19T11:50:29.777Z,2.33
2023-01-19T11:53:11.736Z,2.90
2023-01-19T11:56:01.595Z,2.75
2023-01-19T11:58:44.462Z,3.05
2023-01-19T12:01:22.378Z,2.83
2023-01-19T12:04:05.672Z,2.35
2023-01-19T12:06:39.609Z,2.13
2023-01-19T12:09:19.069Z,2.55
2023-01-19T12:12:14.146Z,1.73
2023-01-19T12:15:19.926Z,2.20
2023-01-19T12:17:52.267Z,2.00
2023-01-19T12:20:47.198Z,2.53
2023-01-19T12:23:58.814Z,2.40
2023-01-19T12:27:04.816Z,2.28
2023-01-19T12:29:44.682Z,2.17
2023-01-19T12:36:52.929Z,2.22
2023-01-19T12:39:28.142Z,2.28
2023-01-19T12:42:13.281Z,2.90
2023-01-19T12:45:05.446Z,2.55
2023-01-19T12:47:34.226Z,3.28
2023-01-19T12:50:09.547Z,2.70
2023-01-19T12:52:48.138Z,2.85
2023-01-19T12:55:31.029Z,3.20
2023-01-19T12:58:03.313Z,2.90
2023-01-19T13:00:38.181Z,2.85
2023-01-19T13:04:09.374Z,3.08
2023-01-19T13:07:17.958Z,3.25
2023-01-19T13:09:46.096Z,3.92
2023-01-19T13:12:30.845Z,5.38
2023-01-19T13:15:41.778Z,7.53
2023-01-19T13:18:20.014Z,8.10
2023-01-19T13:20:57.504Z,11.73
2023-01-19T13:23:27.581Z,12.85
2023-01-19T13:26:03.647Z,10.85
2023-01-19T13:28:44.347Z,9.82
2023-01-19T13:31:14.029Z,11.50
2023-01-19T13:33:50.272Z,10.90
2023-01-19T13:36:24.042Z,11.93
2023-01-19T13:39:00.747Z,8.70
2023-01-19T13:41:31.856Z,8.65
2023-01-19T13:44:15.637Z,7.15
2023-01-19T13:46:44.509Z,7.55
2023-01-19T13:49:18.720Z,6.78
2023-01-19T13:51:48.883Z,7.30
2023-01-19T13:54:18.439Z,7.03
2023-01-19T13:56:56.822Z,7.57
2023-01-19T13:59:29.320Z,6.43
2023-01-19T14:02:13.079Z,6.50
2023-01-19T14:04:41.419Z,7.07
2023-01-19T14:07:26.399Z,7.15
2023-01-19T14:10:05.191Z,7.65
2023-01-19T14:12:33.609Z,6.30
2023-01-19T14:15:05.256Z,8.65
2023-01-19T14:17:33.870Z,7.32
2023-01-19T14:20:02.306Z,7.00
2023-01-19T14:22:41.470Z,7.28
2023-01-19T14:25:32.024Z,7.30
2023-01-19T14:28:39.451Z,8.00
2023-01-19T14:31:23.722Z,6.50
2023-01-19T14:33:54.455Z,7.50
2023-01-19T14:36:39.304Z,7.63
2023-01-19T14:39:23.389Z,6.88
2023-01-19T14:41:56.632Z,7.72
2023-01-19T14:44:38.865Z,6.75
2023-01-19T14:47:25.247Z,6.32
2023-01-19T14:49:54.597Z,8.60
2023-01-19T14:52:28.700Z,5.43
2023-01-19T14:54:59.469Z,7.53
2023-01-19T14:57:27.674Z,8.23
2023-01-19T14:59:56.354Z,6.88
2023-01-19T15:02:32.047Z,8.23
2023-01-19T15:05:01.467Z,8.60
2023-01-19T15:07:30.234Z,8.77
2023-01-19T15:10:00.244Z,7.50
2023-01-19T15:12:30.168Z,8.15
2023-01-19T15:14:58.442Z,8.67
2023-01-19T15:17:28.129Z,8.27
2023-01-19T15:19:57.158Z,7.13
2023-01-19T15:22:28.457Z,7.05
2023-01-19T15:25:00.053Z,7.55
2023-01-19T15:27:28.533Z,7.57
2023-01-19T15:29:56.783Z,7.35
2023-01-19T15:32:24.945Z,8.00
2023-01-19T15:34:54.704Z,6.97
2023-01-19T15:37:22.931Z,8.27
2023-01-19T15:39:51.116Z,7.30
2023-01-19T15:42:19.234Z,8.27
2023-01-19T15:44:47.531Z,10.50
2023-01-19T15:47:15.970Z,11.35
2023-01-19T15:49:44.228Z,11.02
2023-01-19T15:52:15.384Z,9.37
2023-01-19T15:54:44.647Z,9.10
2023-01-19T15:57:38.280Z,8.90
2023-01-19T16:00:42.342Z,7.75
2023-01-19T16:03:19.928Z,8.38
2023-01-19T16:05:49.075Z,8.93
2023-01-19T16:08:27.006Z,8.27
2023-01-19T16:11:02.065Z,7.03
2023-01-19T16:13:31.397Z,8.00
2023-01-19T16:16:10.751Z,7.37
2023-01-19T16:18:42.156Z,6.55
2023-01-19T16:21:10.638Z,8.02
2023-01-19T16:23:44.331Z,7.22
2023-01-19T16:26:28.750Z,7.40
2023-01-19T16:29:17.156Z,7.20
2023-01-19T16:31:50.735Z,7.60
2023-01-19T16:34:19.243Z,6.93
2023-01-19T16:36:49.989Z,7.23
2023-01-19T16:39:34.127Z,6.07
2023-01-19T16:42:16.693Z,7.07
2023-01-19T16:44:47.327Z,7.37
2023-01-19T16:47:17.815Z,6.43
2023-01-19T16:50:12.035Z,8.18
2023-01-19T16:52:52.106Z,5.95
2023-01-19T16:55:28.696Z,6.15
2023-01-19T16:57:57.669Z,7.38
2023-01-19T17:00:33.671Z,6.38
2023-01-19T17:03:11.321Z,6.07
2023-01-19T17:05:53.558Z,6.95
2023-01-19T17:09:05.969Z,6.15
2023-01-19T17:12:02.697Z,6.82
2023-01-19T17:14:30.979Z,6.77
2023-01-19T17:17:06.449Z,7.10
2023-01-19T17:19:34.971Z,7.10
2023-01-19T17:22:06.317Z,7.10
2023-01-19T17:24:34.726Z,6.93
2023-01-19T17:27:26.642Z,7.20
2023-01-19T17:30:00.764Z,6.72
2023-01-19T17:32:29.041Z,7.13
2023-01-19T17:34:57.212Z,8.48
2023-01-19T17:37:25.641Z,6.47
2023-01-19T17:39:53.865Z,6.23
2023-01-19T17:42:24.405Z,5.88
2023-01-19T17:44:52.625Z,7.38
2023-01-19T17:47:25.506Z,6.83
2023-01-19T17:50:03.012Z,7.15
2023-01-19T17:52:31.550Z,6.60
2023-01-19T17:54:59.855Z,6.75
2023-01-19T17:57:29.643Z,8.23
2023-01-19T17:59:57.834Z,6.63
2023-01-19T18:02:26.221Z,6.75
2023-01-19T18:04:54.457Z,6.90
2023-01-19T18:07:22.621Z,6.50
2023-01-19T18:09:51.821Z,7.55
2023-01-19T18:12:20.569Z,6.93
2023-01-19T18:14:54.924Z,6.32
2023-01-19T18:17:28.833Z,6.90
2023-01-19T18:19:57.178Z,7.00
2023-01-19T18:22:25.516Z,7.13
2023-01-19T18:24:53.717Z,5.93
2023-01-19T18:27:22.099Z,7.10
2023-01-19T18:29:52.218Z,7.73
2023-01-19T18:32:21.460Z,6.75
2023-01-19T18:34:51.363Z,7.43
2023-01-19T18:37:19.628Z,7.63
2023-01-19T18:39:48.046Z,8.60
2023-01-19T18:42:16.392Z,8.93
2023-01-19T18:44:44.609Z,7.77
2023-01-19T18:47:19.097Z,6.33
2023-01-19T18:49:49.064Z,6.33
2023-01-19T18:52:20.656Z,6.80
2023-01-19T18:54:49.806Z,8.40
2023-01-19T18:57:18.040Z,6.50
2023-01-19T18:59:48.952Z,6.97
2023-01-19T19:02:18.823Z,6.43
2023-01-19T19:04:47.072Z,7.07
2023-01-19T19:07:15.325Z,7.20
2023-01-19T19:09:43.589Z,6.27
2023-01-19T19:12:11.877Z,8.87
2023-01-19T19:14:46.892Z,8.32
2023-01-19T19:17:22.306Z,7.70
2023-01-19T19:19:56.182Z,5.43
2023-01-19T19:22:41.652Z,6.83
2023-01-19T19:25:44.151Z,7.00
2023-01-19T19:28:33.687Z,7.93
2023-01-19T19:31:15.545Z,6.10
2023-01-19T19:33:51.742Z,7.57
2023-01-19T19:39:38.649Z,7.10
2023-01-19T19:42:09.869Z,6.97
2023-01-19T19:44:38.541Z,7.73
2023-01-19T19:47:07.137Z,6.50
2023-01-19T19:49:37.133Z,6.90
2023-01-19T19:52:05.534Z,7.33
2023-01-19T19:54:33.844Z,7.80
2023-01-19T19:57:02.124Z,7.77
2023-01-19T19:59:30.338Z,6.53
2023-01-19T20:01:58.745Z,8.07
2023-01-19T20:04:26.964Z,7.47
2023-01-19T20:07:06.671Z,6.10
2023-01-19T20:09:34.949Z,7.03
2023-01-19T20:12:03.315Z,7.63
2023-01-19T20:14:31.731Z,7.33
2023-01-19T20:17:00.580Z,6.23
2023-01-19T20:19:30.520Z,7.00
2023-01-19T20:22:01.462Z,7.13
2023-01-19T20:24:29.820Z,7.57
2023-01-19T20:26:58.010Z,7.77
2023-01-19T20:29:26.200Z,6.87
2023-01-19T20:31:56.831Z,6.53
2023-01-19T20:34:33.171Z,6.87
2023-01-19T20:37:04.745Z,6.77
2023-01-19T20:39:35.389Z,7.03
2023-01-19T20:42:05.083Z,6.87
2023-01-19T20:44:33.374Z,7.13
2023-01-19T20:47:01.619Z,7.13
2023-01-19T20:49:31.768Z,7.13
2023-01-19T20:52:00.136Z,7.03
2023-01-19T20:54:30.623Z,7.10
2023-01-19T20:56:59.793Z,7.23
2023-01-19T20:59:28.376Z,8.07
2023-01-19T21:01:56.721Z,7.80
2023-01-19T21:04:25.026Z,7.67
2023-01-19T21:06:53.317Z,7.50
2023-01-19T21:09:22.889Z,7.83
2023-01-19T21:11:52.596Z,7.13
2023-01-19T21:14:20.837Z,7.13
2023-01-19T21:16:49.207Z,7.50
2023-01-19T21:19:17.523Z,7.73
2023-01-19T21:21:45.771Z,5.53
2023-01-19T21:24:14.012Z,6.93
2023-01-19T21:26:46.572Z,7.37
2023-01-19T21:29:18.764Z,7.07
2023-01-19T21:31:50.231Z,7.60
2023-01-19T21:34:18.475Z,6.70
2023-01-19T21:36:47.107Z,6.10
2023-01-19T21:39:17.378Z,6.80
2023-01-19T21:41:45.964Z,6.30
2023-01-19T21:44:15.977Z,7.53
2023-01-19T21:46:44.254Z,6.13
2023-01-19T21:49:19.543Z,7.60
2023-01-19T21:51:50.629Z,6.93
2023-01-19T21:54:19.415Z,6.60
2023-01-19T21:56:47.751Z,5.57
2023-01-19T21:59:20.163Z,6.37
2023-01-19T22:01:48.891Z,5.90
2023-01-19T22:04:17.200Z,7.07
2023-01-19T22:06:46.880Z,6.43
2023-01-19T22:09:15.169Z,5.67
2023-01-19T22:11:43.389Z,5.67
2023-01-19T22:14:11.715Z,6.50
2023-01-19T22:16:41.479Z,6.13
2023-01-19T22:19:14.511Z,7.20
2023-01-19T22:21:42.934Z,5.90
2023-01-19T22:24:12.160Z,5.87
2023-01-19T22:26:41.001Z,5.57
2023-01-19T22:29:11.371Z,5.80
2023-01-19T22:31:41.477Z,5.10
2023-01-19T22:34:10.960Z,6.63
2023-01-19T22:36:39.724Z,5.17
2023-01-19T22:39:09.603Z,5.17
2023-01-19T22:41:40.627Z,5.40
2023-01-19T22:44:11.951Z,4.70
2023-01-19T22:46:42.294Z,5.20
2023-01-19T22:49:13.685Z,4.67
2023-01-19T22:51:42.158Z,5.60
2023-01-19T22:54:11.247Z,5.00
2023-01-19T22:56:41.041Z,5.30
2023-01-19T22:59:09.588Z,4.80
2023-01-19T23:01:39.521Z,5.60
2023-01-19T23:04:12.996Z,5.33
2023-01-19T23:06:41.207Z,5.37
2023-01-19T23:09:12.696Z,4.33
2023-01-19T23:11:43.559Z,5.17
2023-01-19T23:14:16.268Z,4.80
2023-01-19T23:16:44.866Z,5.23
2023-01-19T23:19:17.165Z,4.57
2023-01-19T23:21:46.489Z,4.73
2023-01-19T23:24:14.754Z,5.03
2023-01-19T23:26:42.995Z,5.10
2023-01-19T23:29:14.034Z,4.97
2023-01-19T23:31:45.534Z,4.93
2023-01-19T23:34:16.118Z,4.83
2023-01-19T23:36:45.666Z,4.53
2023-01-19T23:39:16.055Z,5.23
2023-01-19T23:41:44.376Z,5.30
2023-01-19T23:44:12.930Z,5.17
2023-01-19T23:46:41.159Z,5.20
2023-01-19T23:49:09.493Z,4.03
2023-01-19T23:51:41.483Z,4.37
2023-01-19T23:54:09.817Z,4.43
2023-01-19T23:56:39.526Z,4.67
2023-01-19T23:59:10.468Z,4.50
